Time;durP1;ratioP1;P1;durP2;ratioP2;P2;SDS_P1;SDS_P2;PMS_P1;PMS_P2;Temp;Humidity;BMP_temperature;BMP_pressure;BME280_temperature;BME280_humidity;BME280_pressure;Samples;Min_cycle;Max_cycle;Signal;HPM_P1;HPM_P2
2022/09/02 00:00:49;;;;;;;7.30;1.90;;;19.70;99.90;;;;;;5032550;28;20655;-83
2022/09/02 00:03:15;;;;;;;11.32;1.90;;;19.80;99.90;;;;;;5032791;28;20318;-87
2022/09/02 00:05:41;;;;;;;2.25;1.73;;;19.80;99.90;;;;;;5033441;28;20585;-86
2022/09/02 00:08:07;;;;;;;6.68;1.88;;;19.70;99.90;;;;;;5033645;28;20183;-87
2022/09/02 00:10:36;;;;;;;4.25;2.00;;;19.80;99.90;;;;;;5032525;28;20171;-86
2022/09/02 00:13:01;;;;;;;2.72;1.52;;;19.70;99.90;;;;;;5032425;28;20278;-86
2022/09/02 00:15:27;;;;;;;7.50;1.80;;;19.70;99.90;;;;;;5032634;28;20306;-89
2022/09/02 00:17:53;;;;;;;3.58;1.67;;;19.70;99.90;;;;;;5034261;28;20670;-91
2022/09/02 00:20:19;;;;;;;5.30;2.28;;;19.70;99.90;;;;;;5033759;28;20175;-89
2022/09/02 00:22:44;;;;;;;1.85;1.60;;;19.70;99.90;;;;;;5033680;28;20211;-88
2022/09/02 00:25:10;;;;;;;1.73;1.60;;;19.80;99.90;;;;;;5032240;28;20164;-86
2022/09/02 00:27:36;;;;;;;5.28;1.90;;;19.80;99.90;;;;;;5032622;28;20540;-86
2022/09/02 00:30:04;;;;;;;1.83;1.55;;;19.80;99.90;;;;;;5032187;28;20254;-87
2022/09/02 00:32:29;;;;;;;17.30;2.38;;;19.60;99.90;;;;;;5033206;28;20192;-85
2022/09/02 00:34:56;;;;;;;3.40;1.63;;;19.40;99.90;;;;;;5032097;28;20222;-85
2022/09/02 00:37:23;;;;;;;4.47;1.90;;;19.40;99.90;;;;;;5033393;28;20164;-86
2022/09/02 00:39:50;;;;;;;2.95;1.77;;;19.50;99.90;;;;;;5032043;28;20167;-85
2022/09/02 00:42:16;;;;;;;5.05;2.22;;;19.40;99.90;;;;;;5033133;28;20217;-85
2022/09/02 00:44:41;;;;;;;1.65;1.55;;;19.30;99.90;;;;;;5033505;28;20160;-85
2022/09/02 00:47:07;;;;;;;5.50;1.95;;;19.20;99.90;;;;;;5033199;28;20632;-86
2022/09/02 00:49:35;;;;;;;3.95;1.80;;;19.20;99.90;;;;;;5033165;28;20172;-85
2022/09/02 00:52:22;;;;;;;2.50;2.30;;;19.20;99.90;;;;;;5032064;28;20187;-85
2022/09/02 00:55:01;;;;;;;2.30;2.10;;;19.10;99.90;;;;;;5031806;28;20202;-85
2022/09/02 00:57:32;;;;;;;2.80;1.83;;;19.30;99.90;;;;;;5031776;28;20624;-86
2022/09/02 01:00:18;;;;;;;7.43;1.73;;;19.50;99.90;;;;;;5031960;28;20525;-86
2022/09/02 01:02:49;;;;;;;4.03;1.58;;;19.70;99.90;;;;;;5031329;28;20253;-85
2022/09/02 01:05:17;;;;;;;5.13;1.90;;;19.60;99.90;;;;;;5031739;28;20526;-86
2022/09/02 01:07:43;;;;;;;5.43;1.95;;;19.40;99.90;;;;;;5031572;28;20581;-85
2022/09/02 01:10:14;;;;;;;2.47;1.58;;;19.40;99.90;;;;;;5031620;28;20164;-86
2022/09/02 01:12:40;;;;;;;2.50;2.10;;;19.30;99.90;;;;;;5031663;28;20237;-85
2022/09/02 01:15:08;;;;;;;4.43;1.38;;;19.20;99.90;;;;;;5031720;28;20168;-86
2022/09/02 01:17:34;;;;;;;5.18;1.90;;;19.20;99.90;;;;;;5031856;28;20565;-86
2022/09/02 01:20:10;;;;;;;1.63;1.50;;;19.20;99.90;;;;;;5032925;28;20168;-85
2022/09/02 01:22:38;;;;;;;2.20;1.85;;;19.00;99.90;;;;;;5035418;28;20274;-86
2022/09/02 01:25:12;;;;;;;3.40;2.47;;;19.10;99.90;;;;;;5035662;28;20646;-84
2022/09/02 01:27:38;;;;;;;2.33;1.60;;;19.00;99.90;;;;;;5036048;28;20532;-86
2022/09/02 01:30:10;;;;;;;5.03;1.83;;;19.10;99.90;;;;;;5035774;28;20168;-85
2022/09/02 01:32:35;;;;;;;4.88;1.65;;;19.00;99.90;;;;;;5035496;28;20668;-86
2022/09/02 01:35:01;;;;;;;2.50;2.25;;;19.00;99.90;;;;;;5035323;28;20167;-86
2022/09/02 01:37:27;;;;;;;5.60;1.92;;;19.10;99.90;;;;;;5036554;28;20245;-85
2022/09/02 01:39:53;;;;;;;3.33;2.15;;;19.00;99.90;;;;;;5035641;28;20164;-85
2022/09/02 01:42:19;;;;;;;1.98;1.38;;;19.00;99.90;;;;;;5035164;28;20747;-85
2022/09/02 01:44:45;;;;;;;6.95;2.00;;;18.70;99.90;;;;;;5034832;28;20241;-86
2022/09/02 01:47:12;;;;;;;16.10;2.17;;;18.60;99.90;;;;;;5034978;28;20242;-85
2022/09/02 01:49:38;;;;;;;1.92;1.67;;;18.60;99.90;;;;;;5034804;28;20174;-86
2022/09/02 01:52:05;;;;;;;5.68;2.00;;;18.40;99.90;;;;;;5035161;28;20278;-85
2022/09/02 01:54:30;;;;;;;4.45;1.90;;;18.40;99.90;;;;;;5036584;28;20501;-86
2022/09/02 01:56:56;;;;;;;3.90;2.00;;;18.60;99.90;;;;;;5035020;28;20190;-86
2022/09/02 01:59:22;;;;;;;3.20;2.00;;;18.60;99.90;;;;;;5035272;28;20167;-86
2022/09/02 02:01:47;;;;;;;7.68;1.95;;;18.70;99.90;;;;;;5035011;28;20235;-85
2022/09/02 02:04:14;;;;;;;3.38;1.85;;;18.80;99.90;;;;;;5035071;28;20175;-85
2022/09/02 02:06:47;;;;;;;3.10;1.92;;;18.70;99.90;;;;;;5034800;28;20187;-86
2022/09/02 02:09:15;;;;;;;2.70;1.63;;;18.60;99.90;;;;;;5034788;28;20582;-86
2022/09/02 02:11:42;;;;;;;1.70;1.60;;;18.50;99.90;;;;;;5034724;28;20593;-86
2022/09/02 02:14:08;;;;;;;2.95;2.28;;;18.50;99.90;;;;;;5034971;28;20608;-85
2022/09/02 02:16:34;;;;;;;11.65;2.22;;;18.50;99.90;;;;;;5034741;28;20218;-86
2022/09/02 02:19:00;;;;;;;4.97;1.75;;;18.50;99.90;;;;;;5034387;28;20172;-85
2022/09/02 02:21:26;;;;;;;8.75;2.10;;;18.50;99.90;;;;;;5034699;28;20260;-85
2022/09/02 02:23:52;;;;;;;2.35;2.15;;;18.60;99.90;;;;;;5034312;28;20202;-85
2022/09/02 02:26:17;;;;;;;6.38;2.00;;;18.50;99.90;;;;;;5034335;28;20171;-85
2022/09/02 02:28:43;;;;;;;9.30;2.10;;;18.60;99.90;;;;;;5034147;28;20175;-85
2022/09/02 02:31:09;;;;;;;2.30;2.10;;;18.40;99.90;;;;;;5033792;28;20632;-85
2022/09/02 02:33:35;;;;;;;1.70;1.60;;;18.40;99.90;;;;;;5033739;28;20192;-85
2022/09/02 02:36:05;;;;;;;4.38;2.15;;;18.40;99.90;;;;;;5033974;28;20164;-85
2022/09/02 02:38:32;;;;;;;2.17;1.63;;;18.40;99.90;;;;;;5033674;28;20172;-85
2022/09/02 02:40:58;;;;;;;1.60;1.50;;;18.10;99.90;;;;;;5033845;28;20171;-86
2022/09/02 02:43:25;;;;;;;3.40;2.58;;;18.20;99.90;;;;;;5033920;28;20211;-85
2022/09/02 02:45:52;;;;;;;2.00;1.85;;;18.10;99.90;;;;;;5034121;28;20234;-85
2022/09/02 02:48:18;;;;;;;6.38;2.13;;;18.20;99.90;;;;;;5033981;28;20176;-85
2022/09/02 02:50:44;;;;;;;1.92;1.80;;;18.20;99.90;;;;;;5033952;28;20726;-85
2022/09/02 02:53:11;;;;;;;2.58;1.95;;;18.30;99.90;;;;;;5035066;28;20263;-85
2022/09/02 02:55:37;;;;;;;7.50;2.50;;;18.40;99.90;;;;;;5034018;28;20180;-86
2022/09/02 02:58:03;;;;;;;8.57;1.92;;;18.40;99.90;;;;;;5034480;28;20179;-85
2022/09/02 03:00:32;;;;;;;2.10;1.90;;;18.30;99.90;;;;;;5034043;28;20172;-85
2022/09/02 03:03:03;;;;;;;2.58;2.28;;;18.30;99.90;;;;;;5033541;28;20224;-84
2022/09/02 03:05:29;;;;;;;3.35;1.77;;;18.30;99.90;;;;;;5034011;28;20171;-85
2022/09/02 03:07:55;;;;;;;7.63;1.90;;;18.30;99.90;;;;;;5033633;28;20538;-85
2022/09/02 03:10:22;;;;;;;9.35;2.80;;;18.30;99.90;;;;;;5035069;28;20236;-85
2022/09/02 03:12:49;;;;;;;5.68;2.13;;;18.20;99.90;;;;;;5033574;28;20203;-85
2022/09/02 03:15:17;;;;;;;2.60;1.98;;;18.10;99.90;;;;;;5033802;28;20199;-86
2022/09/02 03:17:44;;;;;;;5.03;1.80;;;18.10;99.90;;;;;;5034733;28;20251;-85
2022/09/02 03:20:11;;;;;;;2.00;1.80;;;18.10;99.90;;;;;;5033122;28;20174;-85
2022/09/02 03:22:37;;;;;;;4.63;2.30;;;18.10;99.90;;;;;;5033273;28;20216;-86
2022/09/02 03:25:08;;;;;;;18.38;2.00;;;18.10;99.90;;;;;;5033546;28;20176;-86
2022/09/02 03:27:37;;;;;;;18.30;1.77;;;18.10;99.90;;;;;;5033222;28;20179;-85
2022/09/02 03:30:05;;;;;;;4.88;2.55;;;18.30;99.90;;;;;;5033390;28;20160;-86
2022/09/02 03:32:31;;;;;;;3.08;2.03;;;18.40;99.90;;;;;;5033330;28;20250;-85
2022/09/02 03:34:57;;;;;;;13.25;2.30;;;18.30;99.90;;;;;;5033117;28;20172;-86
2022/09/02 03:37:22;;;;;;;4.00;2.42;;;18.20;99.90;;;;;;5033334;28;20171;-85
2022/09/02 03:39:48;;;;;;;9.00;2.40;;;18.10;99.90;;;;;;5032876;28;20186;-84
2022/09/02 03:42:14;;;;;;;3.40;2.10;;;18.00;99.90;;;;;;5032279;28;20238;-85
2022/09/02 03:44:40;;;;;;;5.15;1.85;;;18.00;99.90;;;;;;5033157;28;20558;-85
2022/09/02 03:47:06;;;;;;;2.38;1.95;;;17.90;99.90;;;;;;5033011;28;20218;-85
2022/09/02 03:49:32;;;;;;;10.05;2.08;;;18.10;99.90;;;;;;5033102;28;20259;-86
2022/09/02 03:51:58;;;;;;;2.15;1.80;;;18.20;99.90;;;;;;5032927;28;20192;-86
2022/09/02 03:54:24;;;;;;;6.72;2.15;;;18.10;99.90;;;;;;5032912;28;20179;-85
2022/09/02 03:56:50;;;;;;;2.65;2.30;;;18.10;99.90;;;;;;5033228;28;20167;-85
2022/09/02 03:59:15;;;;;;;5.80;2.35;;;18.20;99.90;;;;;;5034201;28;20175;-85
2022/09/02 04:01:41;;;;;;;8.45;2.10;;;18.10;99.90;;;;;;5032432;28;20187;-85
2022/09/02 04:04:08;;;;;;;11.15;2.35;;;18.20;99.90;;;;;;5035134;28;20264;-85
2022/09/02 04:06:34;;;;;;;5.60;2.70;;;18.20;99.90;;;;;;5033624;28;20629;-85
2022/09/02 04:09:00;;;;;;;3.25;2.55;;;18.10;99.90;;;;;;5032181;28;20180;-86
2022/09/02 04:11:25;;;;;;;8.65;2.42;;;18.10;99.90;;;;;;5032452;28;20524;-84
2022/09/02 04:13:52;;;;;;;3.30;2.67;;;18.00;99.90;;;;;;5033661;28;20187;-85
2022/09/02 04:16:26;;;;;;;10.65;3.38;;;18.00;99.90;;;;;;5032441;28;20180;-85
2022/09/02 04:18:51;;;;;;;8.20;2.72;;;18.00;99.90;;;;;;5032433;28;20174;-85
2022/09/02 04:21:18;;;;;;;7.82;2.72;;;18.00;99.90;;;;;;5032556;28;20183;-85
2022/09/02 04:23:44;;;;;;;4.63;2.95;;;17.70;99.90;;;;;;5032274;28;20199;-85
2022/09/02 04:26:13;;;;;;;15.98;2.92;;;17.70;99.90;;;;;;5032678;28;20624;-85
2022/09/02 04:28:39;;;;;;;6.25;3.10;;;17.80;99.90;;;;;;5032484;28;20168;-85
2022/09/02 04:31:06;;;;;;;5.78;2.95;;;17.80;99.90;;;;;;5032216;28;20214;-85
2022/09/02 04:33:33;;;;;;;9.93;3.22;;;17.80;99.90;;;;;;5031755;28;20541;-85
2022/09/02 04:35:58;;;;;;;11.32;2.80;;;17.70;99.90;;;;;;5031945;28;20212;-85
2022/09/02 04:38:24;;;;;;;15.15;3.90;;;17.70;99.90;;;;;;5031993;28;20556;-85
2022/09/02 04:40:50;;;;;;;11.70;3.22;;;17.80;99.90;;;;;;5032023;28;20168;-85
2022/09/02 04:43:16;;;;;;;15.68;3.63;;;17.80;99.90;;;;;;5031997;28;20306;-85
2022/09/02 04:45:44;;;;;;;10.90;2.97;;;17.80;99.90;;;;;;5032326;28;20164;-85
2022/09/02 04:48:10;;;;;;;12.13;3.33;;;17.80;99.90;;;;;;5033400;28;20172;-85
2022/09/02 04:50:37;;;;;;;9.27;2.85;;;17.80;99.90;;;;;;5032051;28;20167;-86
2022/09/02 04:53:04;;;;;;;6.63;3.47;;;17.70;99.90;;;;;;5033212;28;20195;-85
2022/09/02 04:55:30;;;;;;;3.40;3.05;;;17.70;99.90;;;;;;5031699;28;20578;-86
2022/09/02 04:57:55;;;;;;;22.40;3.20;;;17.60;99.90;;;;;;5031910;28;20581;-85
2022/09/02 05:00:21;;;;;;;16.48;3.63;;;17.60;99.90;;;;;;5031643;28;20210;-85
2022/09/02 05:02:47;;;;;;;15.70;3.10;;;17.40;99.90;;;;;;5031807;28;20260;-86
2022/09/02 05:05:12;;;;;;;9.85;3.08;;;17.60;99.90;;;;;;5032038;28;20283;-85
2022/09/02 05:07:38;;;;;;;11.40;3.03;;;17.70;99.90;;;;;;5031845;28;20233;-85
2022/09/02 05:10:05;;;;;;;9.07;2.80;;;17.60;99.90;;;;;;5033104;28;20156;-85
2022/09/02 05:12:34;;;;;;;8.80;3.28;;;17.70;99.90;;;;;;5031636;28;20196;-85
2022/09/02 05:15:00;;;;;;;7.95;3.75;;;17.80;99.90;;;;;;5031639;28;20579;-85
2022/09/02 05:17:28;;;;;;;7.55;3.03;;;17.90;99.90;;;;;;5031833;28;20676;-86
2022/09/02 05:19:54;;;;;;;10.15;3.22;;;17.80;99.90;;;;;;5032133;28;20178;-86
2022/09/02 05:22:20;;;;;;;13.77;3.83;;;17.90;99.90;;;;;;5031365;28;20219;-85
2022/09/02 05:24:45;;;;;;;9.75;3.05;;;17.90;99.90;;;;;;5031741;28;20172;-86
2022/09/02 05:27:15;;;;;;;10.73;3.50;;;17.90;99.90;;;;;;5031818;28;20191;-86
2022/09/02 05:29:42;;;;;;;25.65;3.92;;;17.90;99.90;;;;;;5031568;28;20203;-86
2022/09/02 05:32:07;;;;;;;10.93;3.33;;;17.90;99.90;;;;;;5032017;28;20223;-85
2022/09/02 05:34:34;;;;;;;18.83;3.63;;;17.90;99.90;;;;;;5031817;28;20646;-85
2022/09/02 05:37:01;;;;;;;17.23;3.65;;;17.90;99.90;;;;;;5031510;28;20172;-85
2022/09/02 05:39:27;;;;;;;17.42;3.20;;;17.80;99.90;;;;;;5031348;28;20171;-85
2022/09/02 05:41:53;;;;;;;12.77;3.50;;;17.80;99.90;;;;;;5032623;28;20208;-86
2022/09/02 05:44:18;;;;;;;16.92;3.75;;;17.80;99.90;;;;;;5031374;28;20253;-86
2022/09/02 05:46:45;;;;;;;19.30;3.75;;;17.90;99.90;;;;;;5031528;28;20168;-86
2022/09/02 05:49:17;;;;;;;16.88;3.72;;;18.00;99.90;;;;;;5031479;28;20655;-86
2022/09/02 05:51:44;;;;;;;19.35;3.53;;;18.00;99.90;;;;;;5031195;28;20203;-86
2022/09/02 05:54:13;;;;;;;11.98;3.63;;;18.00;99.90;;;;;;5031579;28;20168;-85
2022/09/02 05:56:41;;;;;;;13.20;3.92;;;18.00;99.90;;;;;;5031544;28;20175;-86
2022/09/02 05:59:07;;;;;;;20.50;3.97;;;18.20;99.90;;;;;;5031188;28;20258;-85
2022/09/02 06:01:33;;;;;;;11.70;4.03;;;18.30;99.90;;;;;;5031407;28;21384;-85
2022/09/02 06:04:01;;;;;;;6.13;3.78;;;18.40;99.90;;;;;;5031378;28;20187;-86
2022/09/02 06:06:27;;;;;;;13.23;4.05;;;18.40;99.90;;;;;;5033727;28;20167;-87
2022/09/02 06:08:53;;;;;;;17.77;4.28;;;18.30;99.90;;;;;;5035984;28;20171;-83
2022/09/02 06:11:19;;;;;;;11.02;3.83;;;18.40;99.90;;;;;;5035063;28;20586;-84
2022/09/02 06:13:45;;;;;;;20.08;3.90;;;18.50;99.90;;;;;;5035610;28;20183;-83
2022/09/02 06:16:16;;;;;;;31.13;4.45;;;18.50;99.90;;;;;;5033657;28;20210;-83
2022/09/02 06:18:42;;;;;;;17.95;4.45;;;18.60;99.90;;;;;;5034680;28;20179;-83
2022/09/02 06:21:08;;;;;;;29.92;5.25;;;18.80;99.90;;;;;;5034759;28;20168;-84
2022/09/02 06:23:36;;;;;;;20.02;3.97;;;18.90;99.90;;;;;;5033191;28;20564;-82
2022/09/02 06:26:02;;;;;;;17.98;4.50;;;18.90;99.90;;;;;;5033228;28;20171;-84
2022/09/02 06:28:28;;;;;;;36.65;4.65;;;19.00;99.90;;;;;;5033925;28;20172;-83
2022/09/02 06:30:53;;;;;;;29.10;5.15;;;19.10;99.90;;;;;;5035191;28;20520;-83
2022/09/02 06:33:19;;;;;;;22.38;4.63;;;19.10;99.90;;;;;;5035363;28;20196;-83
2022/09/02 06:35:45;;;;;;;11.77;3.67;;;19.20;99.90;;;;;;5034419;28;20207;-83
2022/09/02 06:38:12;;;;;;;10.43;4.10;;;19.40;99.90;;;;;;5034652;28;20770;-84
2022/09/02 06:40:53;;;;;;;11.05;4.38;;;19.40;99.90;;;;;;5034082;28;20183;-85
2022/09/02 06:43:19;;;;;;;7.18;4.60;;;19.40;99.90;;;;;;5025099;28;20647;-86
2022/09/02 06:45:45;;;;;;;14.85;5.18;;;19.50;99.90;;;;;;5020871;28;20172;-86
2022/09/02 06:48:12;;;;;;;14.32;4.10;;;19.70;99.90;;;;;;5014696;28;20223;-84
2022/09/02 06:50:43;;;;;;;8.40;4.22;;;19.80;99.90;;;;;;5013610;28;20275;-85
2022/09/02 06:53:10;;;;;;;18.05;4.60;;;19.80;99.90;;;;;;5012906;28;20622;-86
2022/09/02 06:55:38;;;;;;;11.35;4.43;;;19.70;99.90;;;;;;5023244;28;20168;-88
2022/09/02 06:58:05;;;;;;;11.70;4.47;;;19.70;99.90;;;;;;5034370;28;20172;-87
2022/09/02 07:00:31;;;;;;;7.60;3.70;;;19.80;99.90;;;;;;5020315;28;20175;-86
2022/09/02 07:05:43;;;;;;;20.15;5.38;;;19.90;99.90;;;;;;5035779;28;20259;-85
2022/09/02 07:08:09;;;;;;;8.10;3.50;;;20.00;99.90;;;;;;5032909;28;20200;-88
2022/09/02 07:10:39;;;;;;;4.43;3.70;;;20.00;99.90;;;;;;5017434;28;20176;-88
2022/09/02 07:13:06;;;;;;;24.52;3.90;;;20.30;99.90;;;;;;5031418;28;20188;-88
2022/09/02 07:15:32;;;;;;;4.35;3.35;;;20.40;99.90;;;;;;5035575;28;20160;-86
2022/09/02 07:17:58;;;;;;;13.40;4.68;;;20.20;99.90;;;;;;5033491;28;20196;-86
2022/09/02 07:20:23;;;;;;;7.72;4.85;;;20.20;99.90;;;;;;5049000;28;20165;-86
2022/09/02 07:22:49;;;;;;;13.30;3.90;;;20.30;99.90;;;;;;5030114;28;20208;-86
2022/09/02 07:25:16;;;;;;;7.25;3.30;;;20.40;99.90;;;;;;5039947;28;20235;-83
2022/09/02 07:27:42;;;;;;;14.05;3.55;;;20.60;99.90;;;;;;5057160;28;20214;-84
2022/09/02 07:30:10;;;;;;;17.63;3.63;;;20.70;99.90;;;;;;5049312;28;20254;-86
2022/09/02 07:32:36;;;;;;;4.97;3.22;;;20.70;99.90;;;;;;5028191;28;20192;-88
2022/09/02 07:35:05;;;;;;;5.47;2.72;;;20.80;99.90;;;;;;5014684;28;20513;-87
2022/09/02 07:37:31;;;;;;;9.07;3.20;;;21.10;99.90;;;;;;5013402;28;20196;-86
2022/09/02 07:39:57;;;;;;;6.18;2.63;;;21.20;99.90;;;;;;5013221;28;20191;-86
2022/09/02 07:42:23;;;;;;;4.05;2.95;;;21.20;99.90;;;;;;5011543;28;20204;-83
2022/09/02 07:44:49;;;;;;;12.57;3.13;;;21.30;99.90;;;;;;5011410;28;20165;-83
2022/09/02 07:47:14;;;;;;;3.47;2.83;;;21.30;99.90;;;;;;5020563;28;20183;-84
2022/09/02 07:49:40;;;;;;;3.63;2.83;;;21.50;99.90;;;;;;5021191;28;20263;-84
2022/09/02 07:52:05;;;;;;;3.38;2.60;;;21.60;99.90;;;;;;5013186;28;20192;-83
2022/09/02 07:54:32;;;;;;;6.22;2.60;;;21.70;99.90;;;;;;5012139;28;20260;-84
2022/09/02 07:56:58;;;;;;;2.55;2.35;;;21.70;99.90;;;;;;5012075;28;20168;-82
2022/09/02 07:59:24;;;;;;;4.63;2.80;;;21.70;99.90;;;;;;5012823;28;20184;-84
2022/09/02 08:01:50;;;;;;;10.02;3.30;;;21.90;99.90;;;;;;5017004;28;20299;-83
2022/09/02 08:04:18;;;;;;;7.05;2.22;;;22.00;99.90;;;;;;5017067;28;20185;-83
2022/09/02 08:06:44;;;;;;;6.63;2.70;;;22.20;99.90;;;;;;5012788;28;20168;-83
2022/09/02 08:09:10;;;;;;;13.45;2.25;;;22.10;99.90;;;;;;5012505;28;20164;-82
2022/09/02 08:11:41;;;;;;;8.50;2.85;;;22.20;99.90;;;;;;5010964;28;20187;-83
2022/09/02 08:14:10;;;;;;;2.88;2.60;;;22.40;99.90;;;;;;5011950;28;20181;-83
2022/09/02 08:16:37;;;;;;;6.32;2.95;;;22.60;99.90;;;;;;5011828;28;20164;-84
2022/09/02 08:19:04;;;;;;;12.25;3.03;;;22.90;99.90;;;;;;5017114;28;20620;-83
2022/09/02 08:21:30;;;;;;;8.23;3.05;;;22.80;99.90;;;;;;5030858;28;20168;-84
2022/09/02 08:23:56;;;;;;;18.80;3.05;;;22.90;99.90;;;;;;5031403;28;20540;-83
2022/09/02 08:26:22;;;;;;;7.82;2.85;;;23.10;99.90;;;;;;5031498;28;20240;-83
2022/09/02 08:28:47;;;;;;;5.05;2.60;;;23.20;99.90;;;;;;5021862;28;20165;-85
2022/09/02 08:31:13;;;;;;;7.65;3.75;;;23.30;99.90;;;;;;5018175;28;20534;-83
2022/09/02 08:33:39;;;;;;;9.52;2.97;;;23.30;99.90;;;;;;5012821;28;20271;-83
2022/09/02 08:36:07;;;;;;;18.73;3.47;;;23.30;99.90;;;;;;5012850;28;20648;-82
2022/09/02 08:38:34;;;;;;;8.65;2.60;;;23.40;99.90;;;;;;5011860;28;20200;-86
2022/09/02 08:41:00;;;;;;;5.93;2.60;;;23.50;99.90;;;;;;5011777;28;20165;-84
2022/09/02 08:43:40;;;;;;;8.57;2.30;;;23.70;99.90;;;;;;5012726;28;20212;-84
2022/09/02 08:46:09;;;;;;;14.48;3.17;;;23.70;99.90;;;;;;5014002;28;20179;-84
2022/09/02 08:49:03;;;;;;;2.70;2.50;;;23.90;99.90;;;;;;5011697;28;20576;-83
2022/09/02 08:51:50;;;;;;;5.43;2.97;;;23.80;99.90;;;;;;5013250;28;20188;-83
2022/09/02 08:54:29;;;;;;;3.60;2.67;;;23.90;99.90;;;;;;5012766;28;20161;-82
2022/09/02 08:56:56;;;;;;;4.32;2.92;;;24.10;99.90;;;;;;5011829;28;20594;-82
2022/09/02 08:59:26;;;;;;;2.60;2.30;;;24.30;99.90;;;;;;5011722;28;20495;-82
2022/09/02 09:02:20;;;;;;;9.35;2.53;;;24.30;99.90;;;;;;5011327;28;20204;-83
2022/09/02 09:05:07;;;;;;;2.63;2.42;;;24.50;99.90;;;;;;5013116;28;20181;-82
2022/09/02 09:07:55;;;;;;;3.30;2.40;;;24.50;99.90;;;;;;5011948;28;20647;-81
2022/09/02 09:10:35;;;;;;;12.73;2.20;;;24.60;99.90;;;;;;5032612;28;20167;-81
2022/09/02 09:13:11;;;;;;;2.75;2.33;;;24.70;99.90;;;;;;5024781;28;20188;-80
2022/09/02 09:15:42;;;;;;;3.20;2.53;;;24.60;99.90;;;;;;5032162;28;20175;-81
2022/09/02 09:18:15;;;;;;;6.45;2.53;;;24.50;99.90;;;;;;5030915;28;20176;-82
2022/09/02 09:20:42;;;;;;;7.50;2.28;;;24.60;99.90;;;;;;5015990;28;20176;-82
2022/09/02 09:23:28;;;;;;;3.80;2.72;;;24.70;99.90;;;;;;5011243;28;20223;-81
2022/09/02 09:26:04;;;;;;;4.57;2.58;;;24.90;99.90;;;;;;5011048;28;20260;-82
2022/09/02 09:28:30;;;;;;;7.15;2.58;;;25.00;99.90;;;;;;5011215;28;20710;-82
2022/09/02 09:30:59;;;;;;;6.72;3.53;;;25.20;99.90;;;;;;5012657;28;20243;-82
2022/09/02 09:33:25;;;;;;;3.00;2.40;;;25.20;99.90;;;;;;5012412;28;20181;-82
2022/09/02 09:35:55;;;;;;;8.32;2.22;;;24.90;99.90;;;;;;5009909;28;20187;-83
2022/09/02 09:38:33;;;;;;;4.25;2.40;;;24.80;99.90;;;;;;5011129;28;20176;-83
2022/09/02 09:41:15;;;;;;;8.75;1.88;;;25.10;99.90;;;;;;5013083;28;20541;-83
2022/09/02 09:43:42;;;;;;;5.47;2.10;;;25.30;99.90;;;;;;5021374;28;20298;-83
2022/09/02 09:46:29;;;;;;;9.70;3.13;;;25.40;99.90;;;;;;5017408;28;20179;-83
2022/09/02 09:48:55;;;;;;;6.57;2.60;;;25.50;99.90;;;;;;5015053;28;20175;-83
2022/09/02 09:51:20;;;;;;;4.88;2.30;;;25.40;99.90;;;;;;5014805;28;20168;-82
2022/09/02 09:53:46;;;;;;;8.07;2.60;;;25.60;99.90;;;;;;5016098;28;20271;-82
2022/09/02 09:56:14;;;;;;;6.25;2.88;;;25.40;99.90;;;;;;5016021;28;20235;-81
2022/09/02 09:58:40;;;;;;;11.20;2.63;;;25.40;99.90;;;;;;5014739;28;20263;-83
2022/09/02 10:01:11;;;;;;;12.45;2.30;;;25.50;99.90;;;;;;5015936;28;20258;-83
2022/09/02 10:03:42;;;;;;;9.32;2.40;;;25.90;99.90;;;;;;5014591;28;20216;-83
2022/09/02 10:06:21;;;;;;;6.45;2.72;;;26.10;99.90;;;;;;5014548;28;20169;-83
2022/09/02 10:08:56;;;;;;;4.95;2.95;;;26.10;99.90;;;;;;5014374;28;20207;-83
2022/09/02 10:11:29;;;;;;;11.18;2.90;;;25.90;99.90;;;;;;5014589;28;20172;-84
2022/09/02 10:14:03;;;;;;;13.05;2.85;;;25.80;99.90;;;;;;5014347;28;20219;-82
2022/09/02 10:17:06;;;;;;;9.60;2.55;;;26.00;99.90;;;;;;5014150;28;20171;-82
2022/09/02 10:19:54;;;;;;;3.13;2.50;;;26.00;99.90;;;;;;5015528;28;20175;-82
2022/09/02 10:22:31;;;;;;;3.03;2.30;;;26.00;99.90;;;;;;5014197;28;20216;-82
2022/09/02 10:25:27;;;;;;;4.80;2.15;;;26.20;99.90;;;;;;5014052;28;20164;-82
2022/09/02 10:28:30;;;;;;;2.30;2.10;;;26.00;99.90;;;;;;5022093;28;20177;-86
2022/09/02 10:31:14;;;;;;;5.70;2.63;;;26.10;99.90;;;;;;5015999;28;20184;-83
2022/09/02 10:33:48;;;;;;;8.98;2.30;;;26.20;99.90;;;;;;5014229;28;20584;-84
2022/09/02 10:36:29;;;;;;;2.25;1.98;;;26.30;99.90;;;;;;5013922;28;20175;-83
2022/09/02 10:39:04;;;;;;;4.97;1.80;;;25.90;99.90;;;;;;5014539;28;20175;-84
2022/09/02 10:41:44;;;;;;;10.13;2.47;;;26.00;99.90;;;;;;5015601;28;20295;-82
2022/09/02 10:44:20;;;;;;;9.40;2.92;;;25.90;99.90;;;;;;5014360;28;20172;-85
2022/09/02 10:46:53;;;;;;;9.90;2.45;;;25.90;99.90;;;;;;5013737;28;20172;-83
2022/09/02 10:49:46;;;;;;;2.15;1.95;;;26.10;99.90;;;;;;5015326;28;20175;-85
2022/09/02 10:52:37;;;;;;;8.30;2.08;;;26.30;99.90;;;;;;5014260;28;20600;-82
2022/09/02 10:55:21;;;;;;;25.00;2.85;;;26.40;99.90;;;;;;5015268;28;20625;-83
2022/09/02 10:58:01;;;;;;;5.75;1.80;;;26.10;99.90;;;;;;5014312;28;20176;-86
2022/09/02 11:00:30;;;;;;;3.28;2.17;;;26.10;99.90;;;;;;5014248;28;20176;-83
2022/09/02 11:03:20;;;;;;;3.35;2.00;;;26.10;99.90;;;;;;5014017;28;20327;-84
2022/09/02 11:05:54;;;;;;;5.28;1.95;;;26.10;99.90;;;;;;5018278;28;20165;-82
2022/09/02 11:08:54;;;;;;;7.90;2.30;;;26.20;99.90;;;;;;5027663;28;20172;-83
2022/09/02 11:11:43;;;;;;;13.88;1.90;;;26.20;99.90;;;;;;5007067;28;20180;-83
2022/09/02 11:14:25;;;;;;;5.13;1.67;;;26.30;99.90;;;;;;5033849;28;20176;-83
2022/09/02 11:17:07;;;;;;;5.45;2.00;;;26.40;99.90;;;;;;5032518;28;20202;-83
2022/09/02 11:19:41;;;;;;;14.75;2.10;;;26.30;99.90;;;;;;5050739;28;20168;-85
2022/09/02 11:22:12;;;;;;;23.42;2.72;;;26.50;99.90;;;;;;5021643;28;20218;-82
2022/09/02 11:25:05;;;;;;;5.43;1.95;;;26.70;99.90;;;;;;5014094;28;20188;-83
2022/09/02 11:27:36;;;;;;;9.07;1.90;;;26.90;99.90;;;;;;5008540;28;20181;-83
2022/09/02 11:30:08;;;;;;;2.42;1.90;;;26.90;99.90;;;;;;5012707;28;20231;-83
2022/09/02 11:32:35;;;;;;;4.93;1.80;;;26.90;99.90;;;;;;5030742;28;20349;-82
2022/09/02 11:35:06;;;;;;;9.93;2.13;;;26.80;99.90;;;;;;5014773;28;20165;-84
2022/09/02 11:37:45;;;;;;;5.70;2.10;;;26.70;99.90;;;;;;5021672;28;20548;-83
2022/09/02 11:40:12;;;;;;;1.92;1.83;;;26.50;99.90;;;;;;5029728;28;20231;-83
2022/09/02 11:43:20;;;;;;;2.08;1.85;;;26.70;99.90;;;;;;5012520;28;20212;-83
2022/09/02 11:46:04;;;;;;;13.88;2.00;;;26.80;99.90;;;;;;5020922;28;20251;-82
2022/09/02 11:48:49;;;;;;;2.20;1.98;;;26.90;99.90;;;;;;5030272;28;20280;-85
2022/09/02 11:51:36;;;;;;;3.00;1.60;;;27.00;99.90;;;;;;5031240;28;20172;-83
2022/09/02 11:54:03;;;;;;;13.38;2.78;;;27.10;99.90;;;;;;5012208;28;20280;-83
2022/09/02 11:57:00;;;;;;;14.07;2.30;;;27.00;99.90;;;;;;5012654;28;20643;-82
2022/09/02 11:59:51;;;;;;;5.38;1.50;;;27.10;99.90;;;;;;5010779;28;20633;-83
2022/09/02 12:02:43;;;;;;;11.00;1.98;;;27.10;99.90;;;;;;5011370;28;20216;-83
2022/09/02 12:05:30;;;;;;;14.98;2.25;;;27.20;99.90;;;;;;5011711;28;20648;-83
2022/09/02 12:08:05;;;;;;;4.10;1.45;;;27.20;99.90;;;;;;5012366;28;20164;-83
2022/09/02 12:10:44;;;;;;;6.47;1.40;;;27.30;99.90;;;;;;5016438;28;20191;-84
2022/09/02 12:13:42;;;;;;;1.98;1.45;;;27.40;99.30;;;;;;5032264;28;20219;-83
2022/09/02 12:16:22;;;;;;;4.63;2.47;;;27.60;98.40;;;;;;5031118;28;20321;-85
2022/09/02 12:18:54;;;;;;;9.68;1.77;;;27.70;98.30;;;;;;5031559;28;20336;-83
2022/09/02 12:21:23;;;;;;;1.30;1.17;;;27.80;98.20;;;;;;5031934;28;20175;-82
2022/09/02 12:23:52;;;;;;;3.45;1.42;;;27.70;98.00;;;;;;5032283;28;20211;-83
2022/09/02 12:26:51;;;;;;;5.18;1.50;;;27.80;97.60;;;;;;5031424;28;20575;-83
2022/09/02 12:29:20;;;;;;;5.38;1.73;;;27.90;97.20;;;;;;5009189;28;20650;-85
2022/09/02 12:31:51;;;;;;;4.20;1.60;;;28.00;96.80;;;;;;5031880;28;20244;-82
2022/09/02 12:34:19;;;;;;;4.68;1.23;;;27.90;96.90;;;;;;5027548;28;20188;-88
2022/09/02 12:37:01;;;;;;;1.85;1.38;;;27.90;96.50;;;;;;5030724;28;20241;-84
2022/09/02 12:39:26;;;;;;;4.25;1.52;;;27.90;96.40;;;;;;5031076;28;20175;-83
2022/09/02 12:42:10;;;;;;;2.30;1.98;;;27.80;96.60;;;;;;5029212;28;20235;-82
2022/09/02 12:45:02;;;;;;;4.30;1.30;;;27.90;95.80;;;;;;5029952;28;20175;-83
2022/09/02 12:48:00;;;;;;;1.77;1.45;;;27.90;95.70;;;;;;5030693;28;20186;-83
2022/09/02 12:50:32;;;;;;;3.42;1.50;;;28.00;94.70;;;;;;5029687;28;20578;-84
2022/09/02 12:53:25;;;;;;;4.55;1.55;;;28.00;94.20;;;;;;5030704;28;20672;-82
2022/09/02 12:56:12;;;;;;;3.45;1.10;;;27.80;94.30;;;;;;5031167;28;20180;-84
2022/09/02 12:58:44;;;;;;;3.35;1.33;;;27.70;94.20;;;;;;5032188;28;20175;-83
2022/09/02 13:01:35;;;;;;;7.93;1.50;;;27.60;94.50;;;;;;5030353;28;20183;-88
2022/09/02 13:04:25;;;;;;;3.47;1.90;;;27.70;94.00;;;;;;5031628;28;20188;-84